sensor_id;sensor_type;location;lat;lon;timestamp;P1;durP1;ratioP1;P2;durP2;ratioP2
55364;SDS011;41245;45.384;20.390;2023-04-24T00:00:00;11.93;;;4.95;;
55364;SDS011;41245;45.384;20.390;2023-04-24T00:04:58;9.23;;;5.57;;
55364;SDS011;41245;45.384;20.390;2023-04-24T00:07:27;7.80;;;4.75;;
55364;SDS011;41245;45.384;20.390;2023-04-24T00:09:53;11.43;;;5.55;;
55364;SDS011;41245;45.384;20.390;2023-04-24T00:12:19;12.25;;;6.43;;
55364;SDS011;41245;45.384;20.390;2023-04-24T00:14:45;21.08;;;9.80;;
55364;SDS011;41245;45.384;20.390;2023-04-24T00:17:11;17.38;;;9.20;;
55364;SDS011;41245;45.384;20.390;2023-04-24T00:19:37;10.23;;;6.25;;
55364;SDS011;41245;45.384;20.390;2023-04-24T00:22:03;12.13;;;5.57;;
55364;SDS011;41245;45.384;20.390;2023-04-24T00:24:29;14.07;;;5.80;;
55364;SDS011;41245;45.384;20.390;2023-04-24T00:26:54;12.70;;;5.38;;
55364;SDS011;41245;45.384;20.390;2023-04-24T00:29:21;12.00;;;6.05;;
55364;SDS011;41245;45.384;20.390;2023-04-24T00:31:46;16.13;;;10.88;;
55364;SDS011;41245;45.384;20.390;2023-04-24T00:34:12;18.92;;;10.98;;
55364;SDS011;41245;45.384;20.390;2023-04-24T00:36:38;18.80;;;8.88;;
55364;SDS011;41245;45.384;20.390;2023-04-24T00:39:04;17.00;;;8.05;;
55364;SDS011;41245;45.384;20.390;2023-04-24T00:41:30;24.45;;;10.02;;
55364;SDS011;41245;45.384;20.390;2023-04-24T00:43:55;14.48;;;8.13;;
55364;SDS011;41245;45.384;20.390;2023-04-24T00:46:21;20.80;;;7.32;;
55364;SDS011;41245;45.384;20.390;2023-04-24T00:48:47;13.88;;;7.57;;
55364;SDS011;41245;45.384;20.390;2023-04-24T00:51:13;7.80;;;5.88;;
55364;SDS011;41245;45.384;20.390;2023-04-24T00:53:38;9.35;;;5.93;;
55364;SDS011;41245;45.384;20.390;2023-04-24T00:56:04;8.90;;;6.30;;
55364;SDS011;41245;45.384;20.390;2023-04-24T00:58:30;8.73;;;5.00;;
55364;SDS011;41245;45.384;20.390;2023-04-24T01:00:56;10.95;;;5.53;;
55364;SDS011;41245;45.384;20.390;2023-04-24T01:03:24;19.20;;;5.55;;
55364;SDS011;41245;45.384;20.390;2023-04-24T01:05:52;10.90;;;7.00;;
55364;SDS011;41245;45.384;20.390;2023-04-24T01:08:20;15.02;;;6.82;;
55364;SDS011;41245;45.384;20.390;2023-04-24T01:10:49;9.68;;;7.32;;
55364;SDS011;41245;45.384;20.390;2023-04-24T01:13:17;13.00;;;8.50;;
55364;SDS011;41245;45.384;20.390;2023-04-24T01:15:44;19.65;;;9.77;;
55364;SDS011;41245;45.384;20.390;2023-04-24T01:18:10;12.10;;;8.10;;
55364;SDS011;41245;45.384;20.390;2023-04-24T01:20:36;13.25;;;7.53;;
55364;SDS011;41245;45.384;20.390;2023-04-24T01:23:05;9.57;;;7.07;;
55364;SDS011;41245;45.384;20.390;2023-04-24T01:25:31;11.93;;;7.30;;
55364;SDS011;41245;45.384;20.390;2023-04-24T01:27:57;14.52;;;7.82;;
55364;SDS011;41245;45.384;20.390;2023-04-24T01:30:24;18.48;;;10.45;;
55364;SDS011;41245;45.384;20.390;2023-04-24T01:32:50;18.67;;;9.70;;
55364;SDS011;41245;45.384;20.390;2023-04-24T01:35:17;20.48;;;11.35;;
55364;SDS011;41245;45.384;20.390;2023-04-24T01:37:43;17.50;;;9.88;;
55364;SDS011;41245;45.384;20.390;2023-04-24T01:40:09;19.13;;;10.82;;
55364;SDS011;41245;45.384;20.390;2023-04-24T01:42:35;18.80;;;11.18;;
55364;SDS011;41245;45.384;20.390;2023-04-24T01:45:02;26.83;;;11.45;;
55364;SDS011;41245;45.384;20.390;2023-04-24T01:47:29;28.52;;;14.30;;
55364;SDS011;41245;45.384;20.390;2023-04-24T01:49:55;16.92;;;11.65;;
55364;SDS011;41245;45.384;20.390;2023-04-24T01:52:21;18.73;;;8.93;;
55364;SDS011;41245;45.384;20.390;2023-04-24T01:54:47;13.63;;;9.75;;
55364;SDS011;41245;45.384;20.390;2023-04-24T01:57:13;20.27;;;9.80;;
55364;SDS011;41245;45.384;20.390;2023-04-24T01:59:39;14.93;;;10.25;;
55364;SDS011;41245;45.384;20.390;2023-04-24T02:02:06;21.98;;;12.68;;
55364;SDS011;41245;45.384;20.390;2023-04-24T02:04:32;21.02;;;12.55;;
55364;SDS011;41245;45.384;20.390;2023-04-24T02:06:57;12.88;;;6.90;;
55364;SDS011;41245;45.384;20.390;2023-04-24T02:09:23;13.07;;;5.82;;
55364;SDS011;41245;45.384;20.390;2023-04-24T02:11:49;10.23;;;6.03;;
55364;SDS011;41245;45.384;20.390;2023-04-24T02:14:15;8.07;;;5.53;;
55364;SDS011;41245;45.384;20.390;2023-04-24T02:16:41;13.40;;;6.10;;
55364;SDS011;41245;45.384;20.390;2023-04-24T02:19:07;13.52;;;6.63;;
55364;SDS011;41245;45.384;20.390;2023-04-24T02:21:33;17.02;;;8.55;;
55364;SDS011;41245;45.384;20.390;2023-04-24T02:23:59;14.98;;;8.10;;
55364;SDS011;41245;45.384;20.390;2023-04-24T02:26:25;13.90;;;6.78;;
55364;SDS011;41245;45.384;20.390;2023-04-24T02:28:51;8.18;;;5.95;;
55364;SDS011;41245;45.384;20.390;2023-04-24T02:31:16;10.70;;;6.13;;
55364;SDS011;41245;45.384;20.390;2023-04-24T02:33:42;15.10;;;6.78;;
55364;SDS011;41245;45.384;20.390;2023-04-24T02:36:08;10.95;;;6.47;;
55364;SDS011;41245;45.384;20.390;2023-04-24T02:38:33;9.45;;;6.55;;
55364;SDS011;41245;45.384;20.390;2023-04-24T02:40:59;11.75;;;6.43;;
55364;SDS011;41245;45.384;20.390;2023-04-24T02:43:27;7.45;;;5.32;;
55364;SDS011;41245;45.384;20.390;2023-04-24T02:45:52;16.23;;;7.07;;
55364;SDS011;41245;45.384;20.390;2023-04-24T02:48:18;11.40;;;6.55;;
55364;SDS011;41245;45.384;20.390;2023-04-24T02:50:45;9.82;;;6.63;;
55364;SDS011;41245;45.384;20.390;2023-04-24T02:53:12;10.55;;;6.38;;
55364;SDS011;41245;45.384;20.390;2023-04-24T02:55:37;15.10;;;6.47;;
55364;SDS011;41245;45.384;20.390;2023-04-24T02:58:03;17.80;;;6.25;;
55364;SDS011;41245;45.384;20.390;2023-04-24T03:00:29;9.43;;;6.97;;
55364;SDS011;41245;45.384;20.390;2023-04-24T03:02:55;11.50;;;7.07;;
55364;SDS011;41245;45.384;20.390;2023-04-24T03:05:20;12.02;;;6.63;;
55364;SDS011;41245;45.384;20.390;2023-04-24T03:07:46;10.65;;;6.63;;
55364;SDS011;41245;45.384;20.390;2023-04-24T03:10:12;8.98;;;7.07;;
55364;SDS011;41245;45.384;20.390;2023-04-24T03:12:38;9.00;;;6.28;;
55364;SDS011;41245;45.384;20.390;2023-04-24T03:15:04;8.93;;;6.47;;
55364;SDS011;41245;45.384;20.390;2023-04-24T03:17:30;15.07;;;6.80;;
55364;SDS011;41245;45.384;20.390;2023-04-24T03:19:56;9.90;;;6.03;;
55364;SDS011;41245;45.384;20.390;2023-04-24T03:22:21;11.02;;;6.15;;
55364;SDS011;41245;45.384;20.390;2023-04-24T03:24:47;11.52;;;6.93;;
55364;SDS011;41245;45.384;20.390;2023-04-24T03:27:13;7.78;;;6.05;;
55364;SDS011;41245;45.384;20.390;2023-04-24T03:29:38;19.58;;;7.18;;
55364;SDS011;41245;45.384;20.390;2023-04-24T03:32:04;8.55;;;6.25;;
55364;SDS011;41245;45.384;20.390;2023-04-24T03:34:30;18.77;;;7.70;;
55364;SDS011;41245;45.384;20.390;2023-04-24T03:36:56;12.85;;;7.78;;
55364;SDS011;41245;45.384;20.390;2023-04-24T03:39:21;17.08;;;8.80;;
55364;SDS011;41245;45.384;20.390;2023-04-24T03:41:47;11.77;;;6.85;;
55364;SDS011;41245;45.384;20.390;2023-04-24T03:44:13;13.63;;;7.68;;
55364;SDS011;41245;45.384;20.390;2023-04-24T03:46:38;10.93;;;7.43;;
55364;SDS011;41245;45.384;20.390;2023-04-24T03:49:04;10.02;;;7.63;;
55364;SDS011;41245;45.384;20.390;2023-04-24T03:51:30;14.60;;;8.63;;
55364;SDS011;41245;45.384;20.390;2023-04-24T03:53:56;10.25;;;7.65;;
55364;SDS011;41245;45.384;20.390;2023-04-24T03:56:22;15.85;;;7.32;;
55364;SDS011;41245;45.384;20.390;2023-04-24T03:58:48;10.82;;;7.53;;
55364;SDS011;41245;45.384;20.390;2023-04-24T04:01:13;10.75;;;7.70;;
55364;SDS011;41245;45.384;20.390;2023-04-24T04:03:41;26.52;;;13.57;;
55364;SDS011;41245;45.384;20.390;2023-04-24T04:06:06;26.30;;;15.02;;
55364;SDS011;41245;45.384;20.390;2023-04-24T04:08:32;24.02;;;15.10;;
55364;SDS011;41245;45.384;20.390;2023-04-24T04:10:58;18.20;;;12.95;;
55364;SDS011;41245;45.384;20.390;2023-04-24T04:13:24;11.63;;;7.78;;
55364;SDS011;41245;45.384;20.390;2023-04-24T04:15:49;14.95;;;7.75;;
55364;SDS011;41245;45.384;20.390;2023-04-24T04:18:15;9.20;;;7.05;;
55364;SDS011;41245;45.384;20.390;2023-04-24T04:20:41;11.90;;;7.72;;
55364;SDS011;41245;45.384;20.390;2023-04-24T04:23:07;14.13;;;7.20;;
55364;SDS011;41245;45.384;20.390;2023-04-24T04:25:32;10.50;;;6.90;;
55364;SDS011;41245;45.384;20.390;2023-04-24T04:27:59;17.60;;;7.63;;
55364;SDS011;41245;45.384;20.390;2023-04-24T04:30:25;9.57;;;6.90;;
55364;SDS011;41245;45.384;20.390;2023-04-24T04:32:51;18.70;;;7.15;;
55364;SDS011;41245;45.384;20.390;2023-04-24T04:35:16;11.52;;;6.93;;
55364;SDS011;41245;45.384;20.390;2023-04-24T04:37:42;9.82;;;6.47;;
55364;SDS011;41245;45.384;20.390;2023-04-24T04:40:08;13.98;;;7.50;;
55364;SDS011;41245;45.384;20.390;2023-04-24T04:42:37;13.10;;;7.03;;
55364;SDS011;41245;45.384;20.390;2023-04-24T04:45:07;9.73;;;6.07;;
55364;SDS011;41245;45.384;20.390;2023-04-24T04:47:36;9.40;;;5.97;;
55364;SDS011;41245;45.384;20.390;2023-04-24T04:50:02;10.52;;;6.78;;
55364;SDS011;41245;45.384;20.390;2023-04-24T04:52:30;9.50;;;6.70;;
55364;SDS011;41245;45.384;20.390;2023-04-24T04:54:56;20.42;;;5.82;;
55364;SDS011;41245;45.384;20.390;2023-04-24T04:57:22;15.48;;;5.45;;
55364;SDS011;41245;45.384;20.390;2023-04-24T04:59:47;9.10;;;6.28;;
55364;SDS011;41245;45.384;20.390;2023-04-24T05:02:13;17.60;;;8.80;;
55364;SDS011;41245;45.384;20.390;2023-04-24T05:04:39;12.05;;;8.93;;
55364;SDS011;41245;45.384;20.390;2023-04-24T05:07:04;20.30;;;10.27;;
55364;SDS011;41245;45.384;20.390;2023-04-24T05:09:31;14.65;;;7.28;;
55364;SDS011;41245;45.384;20.390;2023-04-24T05:11:56;14.43;;;6.68;;
55364;SDS011;41245;45.384;20.390;2023-04-24T05:14:22;10.68;;;5.10;;
55364;SDS011;41245;45.384;20.390;2023-04-24T05:16:48;13.10;;;5.60;;
55364;SDS011;41245;45.384;20.390;2023-04-24T05:19:14;23.85;;;5.82;;
55364;SDS011;41245;45.384;20.390;2023-04-24T05:21:40;8.35;;;5.25;;
55364;SDS011;41245;45.384;20.390;2023-04-24T05:24:06;13.57;;;6.03;;
55364;SDS011;41245;45.384;20.390;2023-04-24T05:26:32;7.82;;;5.45;;
55364;SDS011;41245;45.384;20.390;2023-04-24T05:28:58;10.27;;;4.82;;
55364;SDS011;41245;45.384;20.390;2023-04-24T05:31:23;6.40;;;4.80;;
55364;SDS011;41245;45.384;20.390;2023-04-24T05:33:50;9.82;;;5.03;;
55364;SDS011;41245;45.384;20.390;2023-04-24T05:36:16;10.55;;;4.93;;
55364;SDS011;41245;45.384;20.390;2023-04-24T05:38:41;8.25;;;4.53;;
55364;SDS011;41245;45.384;20.390;2023-04-24T05:41:07;7.72;;;4.60;;
55364;SDS011;41245;45.384;20.390;2023-04-24T05:43:33;8.18;;;5.28;;
55364;SDS011;41245;45.384;20.390;2023-04-24T05:45:59;7.30;;;5.30;;
55364;SDS011;41245;45.384;20.390;2023-04-24T05:48:24;13.32;;;5.43;;
55364;SDS011;41245;45.384;20.390;2023-04-24T05:50:50;10.90;;;4.88;;
55364;SDS011;41245;45.384;20.390;2023-04-24T05:53:17;9.45;;;5.95;;
55364;SDS011;41245;45.384;20.390;2023-04-24T05:55:43;12.23;;;5.38;;
55364;SDS011;41245;45.384;20.390;2023-04-24T05:58:10;8.30;;;5.38;;
55364;SDS011;41245;45.384;20.390;2023-04-24T06:00:36;11.10;;;5.40;;
55364;SDS011;41245;45.384;20.390;2023-04-24T06:03:02;9.70;;;5.10;;
55364;SDS011;41245;45.384;20.390;2023-04-24T06:05:28;11.25;;;5.22;;
55364;SDS011;41245;45.384;20.390;2023-04-24T06:07:55;23.75;;;6.45;;
55364;SDS011;41245;45.384;20.390;2023-04-24T06:10:21;11.48;;;5.20;;
55364;SDS011;41245;45.384;20.390;2023-04-24T06:12:46;6.82;;;5.13;;
55364;SDS011;41245;45.384;20.390;2023-04-24T06:15:12;11.85;;;7.03;;
55364;SDS011;41245;45.384;20.390;2023-04-24T06:17:38;7.80;;;5.50;;
55364;SDS011;41245;45.384;20.390;2023-04-24T06:20:04;10.52;;;6.22;;
55364;SDS011;41245;45.384;20.390;2023-04-24T06:22:31;14.63;;;6.07;;
55364;SDS011;41245;45.384;20.390;2023-04-24T06:24:57;10.82;;;5.50;;
55364;SDS011;41245;45.384;20.390;2023-04-24T06:27:23;10.23;;;5.25;;
55364;SDS011;41245;45.384;20.390;2023-04-24T06:29:49;9.07;;;5.00;;
55364;SDS011;41245;45.384;20.390;2023-04-24T06:32:19;5.85;;;5.25;;
55364;SDS011;41245;45.384;20.390;2023-04-24T06:34:48;13.13;;;5.25;;
55364;SDS011;41245;45.384;20.390;2023-04-24T06:37:14;12.88;;;5.45;;
55364;SDS011;41245;45.384;20.390;2023-04-24T06:39:41;9.90;;;6.13;;
55364;SDS011;41245;45.384;20.390;2023-04-24T06:42:07;21.50;;;7.07;;
55364;SDS011;41245;45.384;20.390;2023-04-24T06:44:34;10.52;;;5.40;;
55364;SDS011;41245;45.384;20.390;2023-04-24T06:47:06;7.40;;;5.85;;
55364;SDS011;41245;45.384;20.390;2023-04-24T06:49:33;13.23;;;5.07;;
55364;SDS011;41245;45.384;20.390;2023-04-24T06:51:59;7.63;;;5.47;;
55364;SDS011;41245;45.384;20.390;2023-04-24T06:54:25;12.77;;;5.53;;
55364;SDS011;41245;45.384;20.390;2023-04-24T06:56:51;10.48;;;5.80;;
55364;SDS011;41245;45.384;20.390;2023-04-24T06:59:17;9.13;;;5.70;;
55364;SDS011;41245;45.384;20.390;2023-04-24T07:01:43;12.20;;;6.78;;
55364;SDS011;41245;45.384;20.390;2023-04-24T07:04:08;11.95;;;6.68;;
55364;SDS011;41245;45.384;20.390;2023-04-24T07:06:34;12.75;;;6.65;;
55364;SDS011;41245;45.384;20.390;2023-04-24T07:09:00;14.13;;;8.15;;
55364;SDS011;41245;45.384;20.390;2023-04-24T07:11:26;14.05;;;7.22;;
55364;SDS011;41245;45.384;20.390;2023-04-24T07:13:54;10.88;;;7.10;;
55364;SDS011;41245;45.384;20.390;2023-04-24T07:16:20;10.15;;;7.32;;
55364;SDS011;41245;45.384;20.390;2023-04-24T07:18:46;15.45;;;7.22;;
55364;SDS011;41245;45.384;20.390;2023-04-24T07:21:12;10.80;;;7.15;;
55364;SDS011;41245;45.384;20.390;2023-04-24T07:23:37;15.07;;;7.22;;
55364;SDS011;41245;45.384;20.390;2023-04-24T07:26:03;11.02;;;7.68;;
55364;SDS011;41245;45.384;20.390;2023-04-24T07:28:29;10.35;;;7.47;;
55364;SDS011;41245;45.384;20.390;2023-04-24T07:30:56;9.63;;;7.47;;
55364;SDS011;41245;45.384;20.390;2023-04-24T07:33:23;13.45;;;8.52;;
55364;SDS011;41245;45.384;20.390;2023-04-24T07:35:49;8.18;;;6.50;;
55364;SDS011;41245;45.384;20.390;2023-04-24T07:38:15;12.80;;;7.65;;
55364;SDS011;41245;45.384;20.390;2023-04-24T07:40:41;13.80;;;7.32;;
55364;SDS011;41245;45.384;20.390;2023-04-24T07:43:06;13.20;;;8.50;;
55364;SDS011;41245;45.384;20.390;2023-04-24T07:45:32;8.88;;;7.78;;
55364;SDS011;41245;45.384;20.390;2023-04-24T07:48:02;8.43;;;7.03;;
55364;SDS011;41245;45.384;20.390;2023-04-24T07:50:28;15.30;;;8.00;;
55364;SDS011;41245;45.384;20.390;2023-04-24T07:52:53;12.70;;;7.55;;
55364;SDS011;41245;45.384;20.390;2023-04-24T07:55:19;10.57;;;7.05;;
55364;SDS011;41245;45.384;20.390;2023-04-24T07:57:45;11.52;;;7.95;;
55364;SDS011;41245;45.384;20.390;2023-04-24T08:00:11;10.27;;;7.10;;
55364;SDS011;41245;45.384;20.390;2023-04-24T08:02:37;18.08;;;10.43;;
55364;SDS011;41245;45.384;20.390;2023-04-24T08:05:03;28.08;;;10.43;;
55364;SDS011;41245;45.384;20.390;2023-04-24T08:07:29;17.73;;;9.68;;
55364;SDS011;41245;45.384;20.390;2023-04-24T08:09:54;17.98;;;10.82;;
55364;SDS011;41245;45.384;20.390;2023-04-24T08:12:20;13.73;;;9.20;;
55364;SDS011;41245;45.384;20.390;2023-04-24T08:14:46;14.30;;;10.93;;
55364;SDS011;41245;45.384;20.390;2023-04-24T08:17:11;49.25;;;14.43;;
55364;SDS011;41245;45.384;20.390;2023-04-24T08:19:37;21.95;;;12.35;;
55364;SDS011;41245;45.384;20.390;2023-04-24T08:22:07;21.02;;;13.93;;
55364;SDS011;41245;45.384;20.390;2023-04-24T08:24:32;21.20;;;14.63;;
55364;SDS011;41245;45.384;20.390;2023-04-24T08:26:58;20.80;;;15.85;;
55364;SDS011;41245;45.384;20.390;2023-04-24T08:29:24;21.30;;;13.73;;
55364;SDS011;41245;45.384;20.390;2023-04-24T08:31:50;18.90;;;13.85;;
55364;SDS011;41245;45.384;20.390;2023-04-24T08:34:15;21.38;;;14.35;;
55364;SDS011;41245;45.384;20.390;2023-04-24T08:36:41;18.05;;;12.57;;
55364;SDS011;41245;45.384;20.390;2023-04-24T08:39:07;19.98;;;15.60;;
55364;SDS011;41245;45.384;20.390;2023-04-24T08:41:33;19.25;;;13.95;;
55364;SDS011;41245;45.384;20.390;2023-04-24T08:44:01;22.75;;;15.27;;
55364;SDS011;41245;45.384;20.390;2023-04-24T08:46:27;28.92;;;17.23;;
55364;SDS011;41245;45.384;20.390;2023-04-24T08:48:55;35.30;;;18.52;;
55364;SDS011;41245;45.384;20.390;2023-04-24T08:51:21;30.08;;;18.65;;
55364;SDS011;41245;45.384;20.390;2023-04-24T08:53:48;30.92;;;21.15;;
55364;SDS011;41245;45.384;20.390;2023-04-24T08:56:16;35.00;;;21.85;;
55364;SDS011;41245;45.384;20.390;2023-04-24T08:58:42;43.47;;;23.33;;
55364;SDS011;41245;45.384;20.390;2023-04-24T09:01:09;30.63;;;18.17;;
55364;SDS011;41245;45.384;20.390;2023-04-24T09:03:35;23.67;;;15.13;;
55364;SDS011;41245;45.384;20.390;2023-04-24T09:06:02;18.10;;;14.43;;
55364;SDS011;41245;45.384;20.390;2023-04-24T09:08:28;28.13;;;13.75;;
55364;SDS011;41245;45.384;20.390;2023-04-24T09:10:55;16.08;;;10.55;;
55364;SDS011;41245;45.384;20.390;2023-04-24T09:13:23;15.32;;;11.13;;
55364;SDS011;41245;45.384;20.390;2023-04-24T09:15:49;18.17;;;13.43;;
55364;SDS011;41245;45.384;20.390;2023-04-24T09:18:16;16.00;;;11.15;;
55364;SDS011;41245;45.384;20.390;2023-04-24T09:20:58;13.52;;;9.13;;
55364;SDS011;41245;45.384;20.390;2023-04-24T09:23:29;17.85;;;9.18;;
55364;SDS011;41245;45.384;20.390;2023-04-24T09:25:56;10.57;;;8.98;;
55364;SDS011;41245;45.384;20.390;2023-04-24T09:28:34;21.90;;;11.45;;
55364;SDS011;41245;45.384;20.390;2023-04-24T09:33:35;36.03;;;18.40;;
55364;SDS011;41245;45.384;20.390;2023-04-24T09:36:01;30.02;;;16.85;;
55364;SDS011;41245;45.384;20.390;2023-04-24T09:38:46;15.95;;;12.82;;
55364;SDS011;41245;45.384;20.390;2023-04-24T09:41:13;12.63;;;10.15;;
55364;SDS011;41245;45.384;20.390;2023-04-24T09:43:39;11.55;;;9.65;;
55364;SDS011;41245;45.384;20.390;2023-04-24T09:46:05;20.20;;;11.85;;
55364;SDS011;41245;45.384;20.390;2023-04-24T09:48:32;11.13;;;9.52;;
55364;SDS011;41245;45.384;20.390;2023-04-24T09:51:00;11.10;;;7.97;;
55364;SDS011;41245;45.384;20.390;2023-04-24T09:53:29;12.60;;;9.27;;
55364;SDS011;41245;45.384;20.390;2023-04-24T09:55:56;13.70;;;9.38;;
55364;SDS011;41245;45.384;20.390;2023-04-24T09:58:28;13.57;;;10.27;;
55364;SDS011;41245;45.384;20.390;2023-04-24T10:00:54;15.02;;;9.77;;
55364;SDS011;41245;45.384;20.390;2023-04-24T10:03:23;14.35;;;9.55;;
55364;SDS011;41245;45.384;20.390;2023-04-24T10:05:51;16.92;;;9.20;;
55364;SDS011;41245;45.384;20.390;2023-04-24T10:08:17;13.80;;;9.30;;
55364;SDS011;41245;45.384;20.390;2023-04-24T10:10:45;11.68;;;9.00;;
55364;SDS011;41245;45.384;20.390;2023-04-24T10:13:11;14.80;;;10.43;;
55364;SDS011;41245;45.384;20.390;2023-04-24T10:15:38;14.25;;;9.50;;
55364;SDS011;41245;45.384;20.390;2023-04-24T10:18:05;14.98;;;11.15;;
55364;SDS011;41245;45.384;20.390;2023-04-24T10:20:32;18.25;;;12.70;;
55364;SDS011;41245;45.384;20.390;2023-04-24T10:22:58;20.15;;;12.05;;
55364;SDS011;41245;45.384;20.390;2023-04-24T10:25:28;13.77;;;10.15;;
55364;SDS011;41245;45.384;20.390;2023-04-24T10:27:56;16.50;;;11.02;;
55364;SDS011;41245;45.384;20.390;2023-04-24T10:30:24;22.73;;;15.38;;
55364;SDS011;41245;45.384;20.390;2023-04-24T10:32:52;16.63;;;11.85;;
55364;SDS011;41245;45.384;20.390;2023-04-24T10:35:18;19.23;;;13.80;;
55364;SDS011;41245;45.384;20.390;2023-04-24T10:37:50;18.92;;;13.30;;
55364;SDS011;41245;45.384;20.390;2023-04-24T10:40:41;17.25;;;11.93;;
55364;SDS011;41245;45.384;20.390;2023-04-24T10:43:08;18.45;;;12.23;;
55364;SDS011;41245;45.384;20.390;2023-04-24T10:45:36;18.40;;;12.27;;
55364;SDS011;41245;45.384;20.390;2023-04-24T10:48:03;16.33;;;11.48;;
55364;SDS011;41245;45.384;20.390;2023-04-24T10:50:46;13.05;;;10.73;;
55364;SDS011;41245;45.384;20.390;2023-04-24T10:53:16;16.55;;;11.18;;
55364;SDS011;41245;45.384;20.390;2023-04-24T10:55:50;18.88;;;11.05;;
55364;SDS011;41245;45.384;20.390;2023-04-24T10:58:17;16.40;;;11.05;;
55364;SDS011;41245;45.384;20.390;2023-04-24T11:00:57;24.83;;;12.68;;
55364;SDS011;41245;45.384;20.390;2023-04-24T11:03:26;26.88;;;12.35;;
55364;SDS011;41245;45.384;20.390;2023-04-24T11:16:29;19.83;;;13.02;;
55364;SDS011;41245;45.384;20.390;2023-04-24T11:19:08;21.38;;;11.02;;
55364;SDS011;41245;45.384;20.390;2023-04-24T11:29:42;36.60;;;15.70;;
55364;SDS011;41245;45.384;20.390;2023-04-24T11:37:24;18.88;;;12.82;;
55364;SDS011;41245;45.384;20.390;2023-04-24T11:39:52;25.80;;;13.77;;
55364;SDS011;41245;45.384;20.390;2023-04-24T11:42:19;47.65;;;21.52;;
55364;SDS011;41245;45.384;20.390;2023-04-24T11:44:49;25.27;;;13.27;;
55364;SDS011;41245;45.384;20.390;2023-04-24T11:47:16;45.35;;;21.10;;
55364;SDS011;41245;45.384;20.390;2023-04-24T11:49:42;20.02;;;12.50;;
55364;SDS011;41245;45.384;20.390;2023-04-24T11:52:08;42.50;;;24.55;;
55364;SDS011;41245;45.384;20.390;2023-04-24T11:54:35;38.42;;;20.83;;
55364;SDS011;41245;45.384;20.390;2023-04-24T11:57:03;29.15;;;14.98;;
55364;SDS011;41245;45.384;20.390;2023-04-24T11:59:35;48.33;;;23.45;;
55364;SDS011;41245;45.384;20.390;2023-04-24T12:02:01;26.27;;;13.57;;
55364;SDS011;41245;45.384;20.390;2023-04-24T12:04:37;19.42;;;13.23;;
55364;SDS011;41245;45.384;20.390;2023-04-24T12:07:06;20.00;;;12.50;;
55364;SDS011;41245;45.384;20.390;2023-04-24T12:12:14;19.10;;;12.45;;
55364;SDS011;41245;45.384;20.390;2023-04-24T12:14:48;21.67;;;13.05;;
55364;SDS011;41245;45.384;20.390;2023-04-24T12:17:15;22.50;;;12.45;;
55364;SDS011;41245;45.384;20.390;2023-04-24T12:19:48;26.40;;;12.10;;
55364;SDS011;41245;45.384;20.390;2023-04-24T12:22:14;22.38;;;13.20;;
55364;SDS011;41245;45.384;20.390;2023-04-24T12:24:56;23.05;;;12.48;;
55364;SDS011;41245;45.384;20.390;2023-04-24T12:27:22;26.45;;;13.73;;
55364;SDS011;41245;45.384;20.390;2023-04-24T12:29:51;21.98;;;12.98;;
55364;SDS011;41245;45.384;20.390;2023-04-24T12:32:24;23.38;;;13.43;;
55364;SDS011;41245;45.384;20.390;2023-04-24T12:34:50;20.67;;;12.85;;
55364;SDS011;41245;45.384;20.390;2023-04-24T12:37:17;23.65;;;13.60;;
55364;SDS011;41245;45.384;20.390;2023-04-24T12:42:25;26.08;;;14.82;;
55364;SDS011;41245;45.384;20.390;2023-04-24T12:44:55;27.65;;;13.35;;
55364;SDS011;41245;45.384;20.390;2023-04-24T12:47:23;17.35;;;15.02;;
55364;SDS011;41245;45.384;20.390;2023-04-24T12:49:50;22.55;;;14.60;;
55364;SDS011;41245;45.384;20.390;2023-04-24T12:52:17;23.13;;;12.90;;
55364;SDS011;41245;45.384;20.390;2023-04-24T12:54:45;19.63;;;12.57;;
55364;SDS011;41245;45.384;20.390;2023-04-24T12:57:11;15.30;;;12.57;;
55364;SDS011;41245;45.384;20.390;2023-04-24T12:59:38;19.45;;;13.35;;
55364;SDS011;41245;45.384;20.390;2023-04-24T13:02:04;20.25;;;13.85;;
55364;SDS011;41245;45.384;20.390;2023-04-24T13:04:31;19.90;;;12.82;;
55364;SDS011;41245;45.384;20.390;2023-04-24T13:06:57;21.58;;;11.43;;
55364;SDS011;41245;45.384;20.390;2023-04-24T13:09:23;23.70;;;12.18;;
55364;SDS011;41245;45.384;20.390;2023-04-24T13:11:49;19.00;;;13.18;;
55364;SDS011;41245;45.384;20.390;2023-04-24T13:14:15;22.85;;;13.30;;
55364;SDS011;41245;45.384;20.390;2023-04-24T13:16:41;15.63;;;12.07;;
55364;SDS011;41245;45.384;20.390;2023-04-24T13:19:06;21.17;;;10.88;;
55364;SDS011;41245;45.384;20.390;2023-04-24T13:21:32;21.88;;;10.98;;
55364;SDS011;41245;45.384;20.390;2023-04-24T13:23:58;14.88;;;10.80;;
55364;SDS011;41245;45.384;20.390;2023-04-24T13:26:24;20.30;;;11.48;;
55364;SDS011;41245;45.384;20.390;2023-04-24T13:28:50;22.80;;;11.35;;
55364;SDS011;41245;45.384;20.390;2023-04-24T13:31:16;24.70;;;10.25;;
55364;SDS011;41245;45.384;20.390;2023-04-24T13:33:41;21.77;;;11.25;;
55364;SDS011;41245;45.384;20.390;2023-04-24T13:36:08;20.58;;;11.32;;
55364;SDS011;41245;45.384;20.390;2023-04-24T13:38:33;21.13;;;11.50;;
55364;SDS011;41245;45.384;20.390;2023-04-24T13:40:59;19.45;;;11.85;;
55364;SDS011;41245;45.384;20.390;2023-04-24T13:43:25;24.63;;;11.85;;
55364;SDS011;41245;45.384;20.390;2023-04-24T13:45:51;20.10;;;12.57;;
55364;SDS011;41245;45.384;20.390;2023-04-24T13:48:17;23.58;;;11.35;;
55364;SDS011;41245;45.384;20.390;2023-04-24T13:50:43;21.60;;;12.15;;
55364;SDS011;41245;45.384;20.390;2023-04-24T13:53:09;21.88;;;12.38;;
55364;SDS011;41245;45.384;20.390;2023-04-24T13:55:35;27.55;;;13.38;;
55364;SDS011;41245;45.384;20.390;2023-04-24T13:58:01;19.35;;;11.57;;
55364;SDS011;41245;45.384;20.390;2023-04-24T14:00:27;16.60;;;11.65;;
55364;SDS011;41245;45.384;20.390;2023-04-24T14:02:53;28.10;;;12.73;;
55364;SDS011;41245;45.384;20.390;2023-04-24T14:05:19;22.20;;;12.13;;
55364;SDS011;41245;45.384;20.390;2023-04-24T14:07:46;22.38;;;12.18;;
55364;SDS011;41245;45.384;20.390;2023-04-24T14:10:13;20.42;;;12.23;;
55364;SDS011;41245;45.384;20.390;2023-04-24T14:12:39;18.45;;;11.48;;
55364;SDS011;41245;45.384;20.390;2023-04-24T14:15:05;13.88;;;10.52;;
55364;SDS011;41245;45.384;20.390;2023-04-24T14:17:31;16.73;;;10.55;;
55364;SDS011;41245;45.384;20.390;2023-04-24T14:19:57;25.70;;;10.40;;
55364;SDS011;41245;45.384;20.390;2023-04-24T14:22:24;20.17;;;10.02;;
55364;SDS011;41245;45.384;20.390;2023-04-24T14:24:50;14.88;;;10.02;;
55364;SDS011;41245;45.384;20.390;2023-04-24T14:27:16;14.15;;;10.23;;
55364;SDS011;41245;45.384;20.390;2023-04-24T14:29:42;13.85;;;8.38;;
55364;SDS011;41245;45.384;20.390;2023-04-24T14:32:07;17.15;;;10.18;;
55364;SDS011;41245;45.384;20.390;2023-04-24T14:34:34;22.10;;;10.80;;
55364;SDS011;41245;45.384;20.390;2023-04-24T14:37:00;17.23;;;10.02;;
55364;SDS011;41245;45.384;20.390;2023-04-24T14:39:25;18.92;;;11.55;;
55364;SDS011;41245;45.384;20.390;2023-04-24T14:41:51;18.63;;;10.25;;
55364;SDS011;41245;45.384;20.390;2023-04-24T14:44:17;23.77;;;10.95;;
55364;SDS011;41245;45.384;20.390;2023-04-24T14:46:42;15.85;;;8.30;;
55364;SDS011;41245;45.384;20.390;2023-04-24T14:49:08;12.77;;;8.77;;